createdAt,value
2018-04-27T00:02:02.640Z,87.30
2018-04-27T00:04:30.153Z,87.70
2018-04-27T00:06:57.573Z,87.70
2018-04-27T00:09:25.080Z,89.00
2018-04-27T00:11:52.499Z,88.70
2018-04-27T00:14:19.943Z,89.10
2018-04-27T00:16:47.942Z,90.20
2018-04-27T00:19:15.378Z,90.70
2018-04-27T00:21:42.798Z,90.90
2018-04-27T00:24:10.249Z,91.00
2018-04-27T00:26:37.696Z,90.80
2018-04-27T00:29:05.143Z,90.70
2018-04-27T00:31:32.600Z,90.90
2018-04-27T00:34:00.047Z,90.80
2018-04-27T00:36:27.476Z,91.00
2018-04-27T00:38:54.921Z,90.70
2018-04-27T00:41:22.349Z,90.50
2018-04-27T00:43:50.059Z,90.40
2018-04-27T00:48:51.320Z,91.10
2018-04-27T00:51:18.749Z,90.10
2018-04-27T00:53:46.197Z,89.50
2018-04-27T00:56:13.639Z,89.40
2018-04-27T00:58:41.085Z,90.20
2018-04-27T01:18:24.882Z,91.70
2018-04-27T01:20:52.332Z,91.70
2018-04-27T01:23:21.298Z,91.80
2018-04-27T01:25:49.708Z,92.00
2018-04-27T01:28:17.183Z,92.00
2018-04-27T01:30:44.653Z,92.10
2018-04-27T01:33:12.083Z,91.80
2018-04-27T01:35:39.545Z,91.70
2018-04-27T01:38:06.972Z,92.00
2018-04-27T01:40:34.411Z,92.20
2018-04-27T01:43:01.851Z,92.10
2018-04-27T01:45:29.291Z,92.10
2018-04-27T01:47:56.747Z,92.10
2018-04-27T01:50:24.220Z,92.40
2018-04-27T01:52:51.656Z,92.50
2018-04-27T01:55:19.134Z,92.70
2018-04-27T01:57:46.553Z,92.90
2018-04-27T02:00:14.000Z,93.10
2018-04-27T02:02:42.223Z,92.70
2018-04-27T02:05:09.667Z,92.70
2018-04-27T02:07:37.115Z,92.80
2018-04-27T02:10:04.556Z,92.70
2018-04-27T02:12:32.766Z,93.00
2018-04-27T02:15:00.222Z,92.90
2018-04-27T02:17:27.671Z,92.80
2018-04-27T02:19:55.893Z,92.30
2018-04-27T02:22:23.346Z,92.30
2018-04-27T02:24:50.780Z,92.30
2018-04-27T02:27:18.218Z,92.60
2018-04-27T02:29:45.649Z,92.70
2018-04-27T02:32:13.872Z,92.90
2018-04-27T02:34:42.065Z,92.40
2018-04-27T02:37:09.537Z,92.40
2018-04-27T02:39:36.964Z,92.50
2018-04-27T02:42:05.191Z,93.00
2018-04-27T02:44:32.634Z,93.00
2018-04-27T02:47:00.090Z,93.90
2018-04-27T02:49:27.539Z,93.70
2018-04-27T02:51:55.747Z,93.40
2018-04-27T02:54:23.208Z,93.10
2018-04-27T02:56:50.662Z,93.30
2018-04-27T02:59:18.117Z,93.40
2018-04-27T03:01:46.341Z,93.60
2018-04-27T03:04:13.794Z,93.60
2018-04-27T03:06:41.228Z,93.50
2018-04-27T03:09:08.667Z,93.50
2018-04-27T03:11:36.882Z,93.70
2018-04-27T03:14:04.329Z,93.70
2018-04-27T03:16:31.792Z,93.80
2018-04-27T03:18:59.243Z,93.90
2018-04-27T03:21:27.471Z,93.80
2018-04-27T03:23:54.967Z,93.70
2018-04-27T03:26:22.380Z,93.70
2018-04-27T03:28:49.821Z,93.50
2018-04-27T03:31:17.274Z,93.50
2018-04-27T03:33:45.476Z,93.60
2018-04-27T03:36:12.917Z,93.60
2018-04-27T03:38:40.363Z,94.30
2018-04-27T03:41:08.565Z,94.70
2018-04-27T03:43:36.009Z,94.40
2018-04-27T03:46:04.224Z,94.50
2018-04-27T03:48:31.665Z,94.50
2018-04-27T03:50:59.122Z,94.70
2018-04-27T03:53:27.324Z,94.70
2018-04-27T03:55:54.779Z,94.60
2018-04-27T03:58:22.212Z,94.80
2018-04-27T04:01:02.187Z,95.00
2018-04-27T04:03:41.514Z,94.90
2018-04-27T04:06:08.984Z,94.60
2018-04-27T04:08:36.420Z,93.90
2018-04-27T04:11:04.649Z,93.80
2018-04-27T04:13:32.095Z,93.70
2018-04-27T04:15:59.533Z,94.30
2018-04-27T04:18:27.736Z,93.90
2018-04-27T04:20:55.168Z,93.90
2018-04-27T04:23:23.384Z,94.00
2018-04-27T04:25:50.816Z,94.00
2018-04-27T04:28:19.037Z,94.60
2018-04-27T04:30:46.459Z,94.60
2018-04-27T04:33:14.965Z,94.20
2018-04-27T04:35:42.384Z,94.20
2018-04-27T04:38:10.100Z,94.20
2018-04-27T04:40:37.549Z,94.10
2018-04-27T04:43:04.992Z,93.90
2018-04-27T04:45:33.196Z,94.20
2018-04-27T04:48:00.636Z,94.10
2018-04-27T04:50:28.843Z,94.40
2018-04-27T04:52:56.288Z,94.40
2018-04-27T04:55:23.719Z,94.40
2018-04-27T04:57:51.229Z,93.90
2018-04-27T05:00:18.660Z,94.00
2018-04-27T05:02:46.930Z,94.50
2018-04-27T05:05:14.333Z,94.40
2018-04-27T05:07:41.972Z,93.70
2018-04-27T05:10:10.175Z,93.90
2018-04-27T05:12:38.388Z,93.90
2018-04-27T05:15:05.840Z,93.80
2018-04-27T05:17:33.291Z,93.90
2018-04-27T05:20:00.237Z,93.90
2018-04-27T05:22:27.691Z,94.20
2018-04-27T05:24:55.149Z,94.00
2018-04-27T05:27:22.580Z,93.80
2018-04-27T05:29:50.800Z,94.30
2018-04-27T05:32:18.251Z,94.20
2018-04-27T05:34:45.700Z,94.60
2018-04-27T05:37:13.169Z,94.90
2018-04-27T05:39:40.636Z,94.90
2018-04-27T05:42:08.835Z,94.70
2018-04-27T05:44:36.267Z,94.70
2018-04-27T05:47:03.728Z,94.60
2018-04-27T05:49:31.950Z,94.90
2018-04-27T05:51:59.390Z,94.90
2018-04-27T05:54:26.833Z,94.90
2018-04-27T05:56:54.268Z,94.80
2018-04-27T05:59:21.726Z,94.60
2018-04-27T06:01:49.166Z,94.70
2018-04-27T06:04:16.621Z,94.50
2018-04-27T06:06:44.050Z,94.40
2018-04-27T06:09:11.496Z,94.00
2018-04-27T06:11:39.704Z,94.30
2018-04-27T06:14:07.156Z,94.30
2018-04-27T06:16:34.606Z,94.00
2018-04-27T06:19:02.047Z,93.60
2018-04-27T06:21:29.490Z,94.00
2018-04-27T06:23:56.955Z,93.90
2018-04-27T06:26:24.403Z,93.80
2018-04-27T06:28:51.850Z,94.20
2018-04-27T06:31:19.280Z,93.80
2018-04-27T06:33:46.725Z,93.50
2018-04-27T06:36:14.939Z,93.30
2018-04-27T06:38:42.384Z,93.30
2018-04-27T06:41:09.837Z,93.50
2018-04-27T06:43:38.041Z,94.20
2018-04-27T06:46:05.490Z,94.20
2018-04-27T06:48:32.929Z,94.50
2018-04-27T06:51:00.363Z,93.90
2018-04-27T06:53:27.805Z,94.30
2018-04-27T06:55:55.236Z,93.90
2018-04-27T06:58:22.689Z,93.70
2018-04-27T07:00:50.909Z,93.20
2018-04-27T07:03:18.379Z,93.20
2018-04-27T07:05:45.823Z,92.90
2018-04-27T07:08:14.022Z,92.10
2018-04-27T07:10:41.464Z,92.10
2018-04-27T07:13:08.902Z,91.80
2018-04-27T07:15:37.131Z,91.40
2018-04-27T07:18:04.564Z,91.40
2018-04-27T07:20:32.029Z,91.40
2018-04-27T07:22:59.497Z,91.50
2018-04-27T07:25:27.532Z,91.00
2018-04-27T07:27:55.742Z,90.70
2018-04-27T07:30:23.979Z,90.60
2018-04-27T07:32:51.431Z,90.50
2018-04-27T07:35:18.931Z,90.60
2018-04-27T07:37:46.390Z,91.10
2018-04-27T07:40:14.628Z,89.30
2018-04-27T07:42:42.067Z,89.30
2018-04-27T07:45:09.554Z,87.40
2018-04-27T07:47:36.991Z,87.90
2018-04-27T07:50:04.454Z,88.10
2018-04-27T07:52:31.888Z,86.50
2018-04-27T07:54:59.356Z,83.70
2018-04-27T07:57:26.804Z,85.00
2018-04-27T07:59:55.015Z,82.50
2018-04-27T08:02:22.479Z,82.50
2018-04-27T08:04:49.928Z,82.20
2018-04-27T08:07:17.430Z,79.80
2018-04-27T08:09:44.841Z,80.00
2018-04-27T08:12:12.292Z,79.40
2018-04-27T08:14:40.513Z,78.30
2018-04-27T08:17:07.961Z,78.30
2018-04-27T08:19:35.429Z,77.90
2018-04-27T08:22:02.884Z,77.80
2018-04-27T08:24:30.412Z,79.00
2018-04-27T08:26:58.526Z,78.20
2018-04-27T08:29:25.971Z,78.20
2018-04-27T08:31:53.421Z,76.90
2018-04-27T08:34:21.633Z,78.00
2018-04-27T08:36:49.079Z,78.00
2018-04-27T08:39:16.533Z,77.90
2018-04-27T08:41:43.985Z,78.10
2018-04-27T08:44:12.246Z,77.10
2018-04-27T08:46:39.698Z,76.90
2018-04-27T08:49:07.131Z,77.00
2018-04-27T08:51:34.589Z,75.80
2018-04-27T08:54:02.050Z,76.30
2018-04-27T08:56:29.489Z,75.90
2018-04-27T08:58:56.959Z,75.80
2018-04-27T09:01:24.417Z,75.20
2018-04-27T09:03:51.869Z,74.60
2018-04-27T09:06:20.102Z,74.70
2018-04-27T09:08:47.524Z,74.70
2018-04-27T09:11:14.982Z,72.60
2018-04-27T09:13:42.441Z,72.40
2018-04-27T09:16:10.657Z,74.40
2018-04-27T09:18:38.112Z,74.30
2018-04-27T09:21:05.567Z,73.50
2018-04-27T09:23:33.017Z,70.20
2018-04-27T09:26:00.484Z,71.80
2018-04-27T09:28:27.926Z,70.20
2018-04-27T09:30:56.154Z,69.90
2018-04-27T09:33:23.613Z,69.80
2018-04-27T09:35:51.064Z,69.10
2018-04-27T09:38:18.498Z,70.20
2018-04-27T09:40:46.727Z,70.20
2018-04-27T09:43:14.260Z,70.20
2018-04-27T09:45:41.703Z,70.90
2018-04-27T09:48:09.146Z,69.60
2018-04-27T09:50:36.605Z,68.90
2018-04-27T09:53:04.048Z,70.40
2018-04-27T09:55:31.506Z,67.20
2018-04-27T09:57:58.951Z,67.00
2018-04-27T10:00:26.522Z,64.90
2018-04-27T10:02:54.001Z,66.70
2018-04-27T10:05:21.450Z,68.10
2018-04-27T10:07:48.891Z,69.50
2018-04-27T10:10:16.356Z,68.00
2018-04-27T10:12:43.796Z,66.50
2018-04-27T10:15:11.245Z,66.20
2018-04-27T10:17:40.256Z,64.70
2018-04-27T10:20:07.691Z,64.60
2018-04-27T10:22:35.152Z,67.80
2018-04-27T10:25:03.366Z,63.50
2018-04-27T10:27:30.817Z,63.50
2018-04-27T10:29:58.263Z,63.70
2018-04-27T10:32:25.712Z,64.60
2018-04-27T10:34:53.153Z,65.20
2018-04-27T10:37:20.605Z,66.30
2018-04-27T10:39:48.056Z,63.00
2018-04-27T10:42:15.496Z,63.40
2018-04-27T10:44:42.952Z,64.00
2018-04-27T10:47:10.415Z,62.60
2018-04-27T10:49:37.870Z,62.80
2018-04-27T10:52:06.084Z,62.90
2018-04-27T10:54:33.541Z,62.90
2018-04-27T10:57:00.987Z,62.90
2018-04-27T10:59:29.693Z,64.80
2018-04-27T11:01:57.925Z,64.20
2018-04-27T11:04:25.380Z,64.20
2018-04-27T11:06:52.858Z,62.20
2018-04-27T11:09:20.288Z,62.10
2018-04-27T11:11:47.748Z,63.10
2018-04-27T11:14:15.185Z,59.80
2018-04-27T11:16:42.714Z,60.50
2018-04-27T11:19:10.085Z,63.60
2018-04-27T11:21:38.309Z,59.40
2018-04-27T11:24:05.769Z,59.50
2018-04-27T11:26:33.222Z,62.40
2018-04-27T11:29:00.670Z,62.10
2018-04-27T11:31:28.138Z,62.70
2018-04-27T11:33:55.580Z,62.20
2018-04-27T11:36:23.036Z,60.30
2018-04-27T11:38:50.501Z,61.70
2018-04-27T11:41:18.730Z,61.80
2018-04-27T11:43:46.177Z,61.80
2018-04-27T11:46:13.645Z,61.60
2018-04-27T11:48:41.188Z,62.20
2018-04-27T11:51:08.645Z,58.80
2018-04-27T11:53:36.113Z,61.10
2018-04-27T11:56:03.557Z,62.10
2018-04-27T11:58:31.025Z,59.50
2018-04-27T12:00:59.922Z,59.60
2018-04-27T12:03:27.399Z,57.50
2018-04-27T12:05:54.837Z,61.20
2018-04-27T12:08:22.335Z,59.10
2018-04-27T12:10:49.760Z,59.10
2018-04-27T12:13:17.208Z,60.00
2018-04-27T12:15:45.415Z,59.80
2018-04-27T12:18:12.875Z,60.40
2018-04-27T12:20:40.327Z,58.10
2018-04-27T12:23:08.547Z,58.10
2018-04-27T12:25:35.996Z,58.30
2018-04-27T12:28:03.444Z,58.50
2018-04-27T12:30:31.023Z,58.40
2018-04-27T12:32:58.472Z,62.00
2018-04-27T12:35:25.950Z,58.90
2018-04-27T12:37:53.390Z,59.30
2018-04-27T12:40:20.978Z,60.00
2018-04-27T12:42:48.428Z,58.70
2018-04-27T12:45:15.899Z,58.00
2018-04-27T12:47:43.374Z,57.90
2018-04-27T12:50:10.812Z,59.00
2018-04-27T12:52:38.262Z,56.80
2018-04-27T12:55:06.284Z,57.50
2018-04-27T12:57:33.741Z,57.20
2018-04-27T13:00:01.188Z,58.70
2018-04-27T13:02:29.395Z,56.40
2018-04-27T13:04:56.823Z,56.40
2018-04-27T13:07:24.281Z,52.90
2018-04-27T13:09:51.725Z,53.50
2018-04-27T13:12:19.940Z,53.90
2018-04-27T13:14:47.385Z,53.90
2018-04-27T13:17:14.850Z,56.10
2018-04-27T13:19:42.268Z,56.10
2018-04-27T13:22:09.722Z,55.80
2018-04-27T13:24:37.152Z,55.50
2018-04-27T13:27:04.626Z,53.60
2018-04-27T13:29:32.090Z,54.50
2018-04-27T13:31:59.546Z,53.70
2018-04-27T13:34:27.026Z,53.70
2018-04-27T13:36:54.433Z,54.30
2018-04-27T13:39:21.882Z,53.40
2018-04-27T13:41:50.105Z,54.60
2018-04-27T13:44:17.556Z,54.60
2018-04-27T13:46:45.002Z,54.70
2018-04-27T13:49:12.463Z,54.80
2018-04-27T13:51:39.915Z,52.60
2018-04-27T13:54:08.153Z,55.00
2018-04-27T13:56:35.587Z,55.00
2018-04-27T13:59:03.063Z,55.60
2018-04-27T14:01:30.485Z,53.40
2018-04-27T14:03:57.933Z,54.20
2018-04-27T14:06:26.165Z,54.60
2018-04-27T14:08:53.631Z,54.40
2018-04-27T14:11:21.094Z,52.90
2018-04-27T14:13:48.560Z,52.60
2018-04-27T14:16:16.009Z,52.70
2018-04-27T14:18:43.454Z,52.70
2018-04-27T14:21:10.893Z,51.90
2018-04-27T14:23:39.123Z,52.90
2018-04-27T14:26:06.569Z,53.00
2018-04-27T14:28:34.016Z,50.80
2018-04-27T14:31:01.459Z,49.90
2018-04-27T14:33:29.672Z,49.70
2018-04-27T14:35:57.125Z,49.70
2018-04-27T14:38:24.599Z,49.60
2018-04-27T14:40:52.031Z,49.30
2018-04-27T14:43:20.267Z,48.00
2018-04-27T14:45:47.692Z,47.40
2018-04-27T14:48:15.166Z,47.60
2018-04-27T14:50:42.615Z,48.60
2018-04-27T14:53:10.089Z,44.90
2018-04-27T14:55:37.526Z,41.40
2018-04-27T14:58:04.984Z,43.00
2018-04-27T15:00:33.973Z,42.70
2018-04-27T15:03:01.420Z,42.70
2018-04-27T15:05:28.870Z,43.20
2018-04-27T15:07:56.310Z,43.70
2018-04-27T15:10:23.773Z,43.70
2018-04-27T15:12:51.214Z,41.60
2018-04-27T15:15:18.839Z,42.40
2018-04-27T15:17:46.272Z,41.40
2018-04-27T15:20:13.722Z,41.90
2018-04-27T15:22:41.164Z,40.00
2018-04-27T15:25:08.622Z,39.80
2018-04-27T15:27:36.065Z,40.70
2018-04-27T15:30:04.284Z,41.30
2018-04-27T15:32:31.729Z,41.30
2018-04-27T15:34:59.190Z,43.00
2018-04-27T15:37:26.631Z,42.20
2018-04-27T15:39:54.895Z,41.60
2018-04-27T15:42:22.277Z,41.40
2018-04-27T15:44:49.746Z,43.40
2018-04-27T15:47:17.183Z,43.70
2018-04-27T15:49:45.414Z,44.10
2018-04-27T15:52:12.871Z,44.00
2018-04-27T15:54:40.340Z,45.10
2018-04-27T15:57:07.812Z,44.20
2018-04-27T15:59:35.253Z,43.60
2018-04-27T16:02:02.696Z,45.20
2018-04-27T16:04:30.164Z,45.80
2018-04-27T16:06:58.437Z,45.80
2018-04-27T16:09:25.976Z,45.20
2018-04-27T16:11:54.099Z,44.80
2018-04-27T16:14:21.564Z,44.80
2018-04-27T16:16:49.008Z,44.30
2018-04-27T16:19:16.458Z,43.50
2018-04-27T16:21:44.676Z,43.90
2018-04-27T16:24:12.114Z,43.90
2018-04-27T16:26:39.573Z,44.70
2018-04-27T16:29:07.029Z,43.00
2018-04-27T16:31:35.225Z,43.90
2018-04-27T16:34:02.674Z,43.90
2018-04-27T16:36:30.220Z,44.50
2018-04-27T16:38:58.436Z,44.00
2018-04-27T16:41:25.888Z,43.90
2018-04-27T16:43:53.322Z,43.20
2018-04-27T16:46:21.622Z,43.50
2018-04-27T16:48:49.053Z,43.50
2018-04-27T16:51:16.497Z,43.30
2018-04-27T16:53:43.932Z,44.00
2018-04-27T16:56:11.386Z,44.50
2018-04-27T16:58:38.850Z,44.80
2018-04-27T17:01:06.288Z,45.20
2018-04-27T17:03:34.570Z,45.70
2018-04-27T17:06:01.963Z,45.60
2018-04-27T17:08:29.413Z,46.20
2018-04-27T17:10:56.861Z,46.20
2018-04-27T17:13:24.312Z,46.90
2018-04-27T17:15:51.798Z,47.20
2018-04-27T17:18:19.235Z,47.60
2018-04-27T17:20:47.452Z,47.80
2018-04-27T17:23:14.902Z,47.80
2018-04-27T17:25:42.644Z,48.10
2018-04-27T17:28:10.874Z,48.50
2018-04-27T17:30:38.324Z,48.50
2018-04-27T17:33:05.765Z,49.10
2018-04-27T17:35:33.241Z,49.60
2018-04-27T17:38:00.685Z,49.40
2018-04-27T17:40:28.946Z,49.50
2018-04-27T17:42:56.348Z,49.50
2018-04-27T17:45:23.863Z,49.30
2018-04-27T17:47:51.319Z,49.40
2018-04-27T17:50:18.776Z,49.30
2018-04-27T17:52:46.241Z,49.10
2018-04-27T17:55:13.688Z,49.80
2018-04-27T17:57:41.147Z,51.20
2018-04-27T18:00:08.577Z,51.30
2018-04-27T18:02:36.025Z,51.00
2018-04-27T18:05:03.481Z,51.10
2018-04-27T18:07:31.717Z,51.10
2018-04-27T18:09:59.899Z,50.70
2018-04-27T18:12:27.346Z,50.70
2018-04-27T18:14:54.785Z,51.00
2018-04-27T18:17:22.234Z,51.20
2018-04-27T18:19:49.673Z,51.00
2018-04-27T18:22:17.148Z,50.90
2018-04-27T18:24:45.355Z,51.90
2018-04-27T18:27:12.800Z,51.90
2018-04-27T18:29:40.241Z,52.20
2018-04-27T18:32:08.468Z,50.80
2018-04-27T18:34:35.924Z,50.80
2018-04-27T18:37:03.412Z,49.30
2018-04-27T18:39:30.855Z,49.80
2018-04-27T18:41:58.305Z,49.00
2018-04-27T18:44:25.919Z,49.30
2018-04-27T18:46:54.061Z,48.80
2018-04-27T18:49:21.498Z,48.70
2018-04-27T18:51:48.957Z,48.00
2018-04-27T18:54:16.403Z,47.80
2018-04-27T18:56:44.618Z,47.50
2018-04-27T18:59:12.069Z,47.50
2018-04-27T19:01:39.608Z,48.20
2018-04-27T19:04:07.809Z,47.00
2018-04-27T19:06:35.259Z,47.00
2018-04-27T19:09:03.484Z,45.90
2018-04-27T19:11:30.949Z,45.90
2018-04-27T19:13:58.375Z,45.40
2018-04-27T19:16:25.820Z,45.70
2018-04-27T19:18:55.930Z,46.50
2018-04-27T19:21:23.383Z,46.50
2018-04-27T19:23:50.830Z,46.40
2018-04-27T19:26:19.101Z,47.00
2018-04-27T19:28:46.562Z,47.60
2018-04-27T19:31:14.005Z,47.80
2018-04-27T19:33:41.452Z,48.20
2018-04-27T19:36:08.898Z,48.70
2018-04-27T19:38:37.123Z,49.60
2018-04-27T19:41:04.574Z,49.60
2018-04-27T19:43:32.023Z,49.50
2018-04-27T19:45:59.549Z,49.80
2018-04-27T19:48:27.001Z,50.20
2018-04-27T19:50:54.444Z,51.00
2018-04-27T19:53:21.885Z,50.80
2018-04-27T19:55:49.318Z,50.60
2018-04-27T19:58:17.526Z,51.40
2018-04-27T20:00:44.970Z,51.40
2018-04-27T20:03:12.416Z,51.70
2018-04-27T20:05:43.534Z,51.00
2018-04-27T20:08:11.001Z,51.00
2018-04-27T20:10:42.000Z,51.50
2018-04-27T20:13:12.100Z,51.60
2018-04-27T20:15:39.532Z,51.60
2018-04-27T20:18:13.567Z,51.70
2018-04-27T20:20:41.933Z,51.40
2018-04-27T20:23:11.048Z,52.10
2018-04-27T20:25:39.999Z,52.60
2018-04-27T20:28:07.435Z,52.60
2018-04-27T20:30:34.877Z,52.30
2018-04-27T20:33:03.105Z,51.90
2018-04-27T20:35:30.563Z,51.90
2018-04-27T20:38:01.426Z,51.50
2018-04-27T20:40:29.465Z,51.60
2018-04-27T20:42:56.910Z,52.00
2018-04-27T20:45:24.356Z,52.30
2018-04-27T20:47:52.565Z,53.00
2018-04-27T20:50:25.247Z,52.80
2018-04-27T20:52:52.705Z,52.70
2018-04-27T20:55:20.133Z,52.80
2018-04-27T20:57:49.108Z,53.50
2018-04-27T21:00:17.462Z,53.50
2018-04-27T21:02:48.528Z,53.80
2018-04-27T21:05:15.977Z,54.10
2018-04-27T21:07:43.457Z,54.50
2018-04-27T21:10:10.915Z,54.90
2018-04-27T21:12:39.266Z,55.00
2018-04-27T21:15:09.526Z,55.20
2018-04-27T21:17:43.716Z,55.50
2018-04-27T21:20:11.156Z,55.70
2018-04-27T21:22:42.049Z,56.00
2018-04-27T21:25:10.194Z,56.50
2018-04-27T21:27:39.332Z,56.70
2018-04-27T21:30:06.796Z,57.00
2018-04-27T21:32:34.220Z,57.20
2018-04-27T21:35:01.661Z,57.50
2018-04-27T21:37:29.115Z,57.80
2018-04-27T21:39:56.563Z,58.20
2018-04-27T21:42:27.392Z,58.60
2018-04-27T21:44:56.521Z,58.70
2018-04-27T21:47:29.837Z,58.60
2018-04-27T21:50:00.309Z,59.00
2018-04-27T21:52:38.571Z,59.20
2018-04-27T21:55:05.965Z,59.30
2018-04-27T21:57:42.077Z,59.70
2018-04-27T22:00:12.264Z,59.90
2018-04-27T22:02:41.349Z,60.20
2018-04-27T22:08:25.991Z,60.90
2018-04-27T22:10:54.341Z,61.30
2018-04-27T22:13:22.584Z,61.50
2018-04-27T22:15:50.024Z,61.70
2018-04-27T22:18:17.471Z,61.90
2018-04-27T22:20:52.635Z,61.90
2018-04-27T22:23:22.955Z,62.10
2018-04-27T22:25:50.397Z,62.10
2018-04-27T22:28:38.664Z,62.20
2018-04-27T22:31:06.098Z,62.30
2018-04-27T22:33:40.275Z,62.50
2018-04-27T22:36:20.936Z,62.60
2018-04-27T22:38:55.036Z,62.70
2018-04-27T22:41:23.253Z,63.10
2018-04-27T22:43:51.948Z,63.10
2018-04-27T22:46:20.106Z,63.00
2018-04-27T22:48:50.180Z,63.10
2018-04-27T22:51:31.315Z,63.10
2018-04-27T22:54:04.688Z,63.10
2018-04-27T22:59:31.084Z,63.70
2018-04-27T23:02:03.004Z,64.80
2018-04-27T23:04:30.445Z,65.30
2018-04-27T23:06:58.653Z,65.00
2018-04-27T23:09:26.128Z,65.00
2018-04-27T23:11:53.566Z,65.80
2018-04-27T23:14:33.140Z,67.20
2018-04-27T23:17:00.573Z,67.20
2018-04-27T23:19:38.492Z,68.10
2018-04-27T23:22:29.457Z,68.40
2018-04-27T23:24:59.299Z,68.50
2018-04-27T23:27:26.723Z,72.00
2018-04-27T23:29:54.213Z,70.50
2018-04-27T23:32:21.636Z,70.50
2018-04-27T23:34:49.085Z,71.20
2018-04-27T23:37:16.526Z,70.90
2018-04-27T23:39:43.968Z,70.10
2018-04-27T23:42:11.407Z,70.10
2018-04-27T23:44:39.572Z,70.00
2018-04-27T23:47:07.004Z,69.80
2018-04-27T23:49:34.445Z,71.90
2018-04-27T23:52:01.895Z,71.10
2018-04-27T23:54:29.340Z,69.70
